createdAt,value
2018-08-27T00:00:42.225Z,61.30
2018-08-27T00:03:09.806Z,61.60
2018-08-27T00:05:37.224Z,61.60
2018-08-27T00:08:04.663Z,61.50
2018-08-27T00:10:32.033Z,61.50
2018-08-27T00:12:59.359Z,61.10
2018-08-27T00:15:26.717Z,61.50
2018-08-27T00:17:54.072Z,61.60
2018-08-27T00:20:21.388Z,61.70
2018-08-27T00:22:48.711Z,61.60
2018-08-27T00:25:16.171Z,61.80
2018-08-27T00:27:43.677Z,61.80
2018-08-27T00:30:11.056Z,62.00
2018-08-27T00:32:38.422Z,61.90
2018-08-27T00:35:05.789Z,62.00
2018-08-27T00:37:33.104Z,62.10
2018-08-27T00:40:00.476Z,61.90
2018-08-27T00:42:27.843Z,62.00
2018-08-27T00:44:55.228Z,62.80
2018-08-27T00:47:22.883Z,62.00
2018-08-27T00:49:50.618Z,61.80
2018-08-27T00:52:18.021Z,61.80
2018-08-27T00:54:45.343Z,62.00
2018-08-27T00:57:12.855Z,62.10
2018-08-27T00:59:40.169Z,62.00
2018-08-27T01:02:07.516Z,61.90
2018-08-27T01:04:35.059Z,62.30
2018-08-27T01:07:02.388Z,62.30
2018-08-27T01:09:29.871Z,62.30
2018-08-27T01:11:57.247Z,62.50
2018-08-27T01:14:31.207Z,62.50
2018-08-27T01:16:58.620Z,62.60
2018-08-27T01:19:25.975Z,62.40
2018-08-27T01:21:53.356Z,63.20
2018-08-27T01:24:20.687Z,63.20
2018-08-27T01:26:48.053Z,63.70
2018-08-27T01:29:15.455Z,64.70
2018-08-27T01:31:44.718Z,64.40
2018-08-27T01:34:12.088Z,65.10
2018-08-27T01:36:39.408Z,65.60
2018-08-27T01:39:07.735Z,66.30
2018-08-27T01:41:35.115Z,66.60
2018-08-27T01:44:02.471Z,67.00
2018-08-27T01:46:29.822Z,67.30
2018-08-27T01:48:57.172Z,67.90
2018-08-27T01:51:24.508Z,68.30
2018-08-27T01:53:51.907Z,69.20
2018-08-27T01:56:19.271Z,69.40
2018-08-27T01:58:50.092Z,69.60
2018-08-27T02:01:18.768Z,70.20
2018-08-27T02:03:46.091Z,70.60
2018-08-27T02:06:13.461Z,71.50
2018-08-27T02:08:40.824Z,71.50
2018-08-27T02:11:08.371Z,71.50
2018-08-27T02:13:35.777Z,72.60
2018-08-27T02:16:03.164Z,72.60
2018-08-27T02:18:30.560Z,72.70
2018-08-27T02:20:57.927Z,72.90
2018-08-27T02:23:25.279Z,73.00
2018-08-27T02:25:52.676Z,73.30
2018-08-27T02:28:20.008Z,74.10
2018-08-27T02:30:47.422Z,73.90
2018-08-27T02:33:14.747Z,74.10
2018-08-27T02:35:42.118Z,74.20
2018-08-27T02:38:09.531Z,74.20
2018-08-27T02:40:36.905Z,74.40
2018-08-27T02:43:04.256Z,74.40
2018-08-27T02:45:31.778Z,74.40
2018-08-27T02:47:59.190Z,74.40
2018-08-27T02:50:26.667Z,75.30
2018-08-27T02:52:54.225Z,74.90
2018-08-27T02:55:21.713Z,75.00
2018-08-27T02:57:49.095Z,75.00
2018-08-27T03:00:16.461Z,75.30
2018-08-27T03:02:43.846Z,75.50
2018-08-27T03:05:11.209Z,75.50
2018-08-27T03:07:38.580Z,76.00
2018-08-27T03:10:06.138Z,75.80
2018-08-27T03:12:33.491Z,76.60
2018-08-27T03:15:00.835Z,76.10
2018-08-27T03:17:28.221Z,76.50
2018-08-27T03:19:55.611Z,76.50
2018-08-27T03:22:23.172Z,76.50
2018-08-27T03:24:50.572Z,76.50
2018-08-27T03:27:17.806Z,76.70
2018-08-27T03:29:45.363Z,76.70
2018-08-27T03:32:12.707Z,76.70
2018-08-27T03:34:40.047Z,76.90
2018-08-27T03:37:07.611Z,77.00
2018-08-27T03:39:34.923Z,77.10
2018-08-27T03:42:02.261Z,77.10
2018-08-27T03:44:29.608Z,77.30
2018-08-27T03:46:56.931Z,77.40
2018-08-27T03:49:24.261Z,78.40
2018-08-27T03:51:51.582Z,77.70
2018-08-27T03:54:18.931Z,77.70
2018-08-27T03:56:46.255Z,78.60
2018-08-27T03:59:13.588Z,78.10
2018-08-27T04:01:40.895Z,78.00
2018-08-27T04:04:08.407Z,78.30
2018-08-27T04:06:35.752Z,78.50
2018-08-27T04:09:04.131Z,78.60
2018-08-27T04:11:31.479Z,78.50
2018-08-27T04:13:58.810Z,78.80
2018-08-27T04:16:26.159Z,78.90
2018-08-27T04:18:53.453Z,79.10
2018-08-27T04:21:20.739Z,79.10
2018-08-27T04:23:48.037Z,79.30
2018-08-27T04:26:15.347Z,79.20
2018-08-27T04:28:42.726Z,79.30
2018-08-27T04:31:10.017Z,79.50
2018-08-27T04:33:37.335Z,79.60
2018-08-27T04:36:04.843Z,79.80
2018-08-27T04:38:32.384Z,79.90
2018-08-27T04:40:59.714Z,79.90
2018-08-27T04:43:27.041Z,79.90
2018-08-27T04:45:54.647Z,80.20
2018-08-27T04:48:21.960Z,80.20
2018-08-27T04:50:49.265Z,80.20
2018-08-27T04:53:16.604Z,80.60
2018-08-27T04:55:43.925Z,80.60
2018-08-27T04:58:11.219Z,80.70
2018-08-27T05:00:40.213Z,80.80
2018-08-27T05:03:08.394Z,80.80
2018-08-27T05:05:35.946Z,80.80
2018-08-27T05:08:03.287Z,80.90
2018-08-27T05:10:31.082Z,81.00
2018-08-27T05:12:58.521Z,81.00
2018-08-27T05:15:25.839Z,81.00
2018-08-27T05:17:53.317Z,80.90
2018-08-27T05:20:20.642Z,80.90
2018-08-27T05:22:48.040Z,81.00
2018-08-27T05:25:15.371Z,81.20
2018-08-27T05:27:42.702Z,81.10
2018-08-27T05:30:10.200Z,81.30
2018-08-27T05:32:37.507Z,81.20
2018-08-27T05:35:04.876Z,81.10
2018-08-27T05:37:32.195Z,81.30
2018-08-27T05:39:59.493Z,81.10
2018-08-27T05:42:26.806Z,81.80
2018-08-27T05:44:54.177Z,81.10
2018-08-27T05:47:21.474Z,81.20
2018-08-27T05:49:48.944Z,81.20
2018-08-27T05:52:16.291Z,81.20
2018-08-27T05:54:43.546Z,82.00
2018-08-27T05:57:10.871Z,81.30
2018-08-27T05:59:38.324Z,81.30
2018-08-27T06:02:05.653Z,81.30
2018-08-27T06:04:33.943Z,81.40
2018-08-27T06:07:01.277Z,81.40
2018-08-27T06:09:28.627Z,81.30
2018-08-27T06:11:56.151Z,81.30
2018-08-27T06:14:23.439Z,81.10
2018-08-27T06:16:50.799Z,81.10
2018-08-27T06:19:18.146Z,81.10
2018-08-27T06:21:45.467Z,81.10
2018-08-27T06:24:12.764Z,81.10
2018-08-27T06:26:40.096Z,81.10
2018-08-27T06:29:07.447Z,81.10
2018-08-27T06:31:34.739Z,81.10
2018-08-27T06:34:02.119Z,81.00
2018-08-27T06:36:29.453Z,81.10
2018-08-27T06:38:56.957Z,81.00
2018-08-27T06:41:24.286Z,81.00
2018-08-27T06:43:51.587Z,81.00
2018-08-27T06:46:18.945Z,80.90
2018-08-27T06:48:46.256Z,81.00
2018-08-27T06:51:13.547Z,80.90
2018-08-27T06:53:40.858Z,80.80
2018-08-27T06:56:08.183Z,80.80
2018-08-27T06:58:35.512Z,80.70
2018-08-27T07:01:02.843Z,80.70
2018-08-27T07:03:30.284Z,80.70
2018-08-27T07:05:57.587Z,80.80
2018-08-27T07:08:24.891Z,80.60
2018-08-27T07:10:52.351Z,80.70
2018-08-27T07:13:19.666Z,80.70
2018-08-27T07:15:46.987Z,80.40
2018-08-27T07:18:14.283Z,80.20
2018-08-27T07:20:41.609Z,80.00
2018-08-27T07:23:08.959Z,79.80
2018-08-27T07:25:36.309Z,79.20
2018-08-27T07:28:04.146Z,79.70
2018-08-27T07:30:31.464Z,79.60
2018-08-27T07:32:58.839Z,79.30
2018-08-27T07:35:26.221Z,79.20
2018-08-27T07:37:53.512Z,79.30
2018-08-27T07:40:20.853Z,79.20
2018-08-27T07:42:48.159Z,79.10
2018-08-27T07:45:15.485Z,78.90
2018-08-27T07:47:42.783Z,78.60
2018-08-27T07:50:10.115Z,78.50
2018-08-27T07:52:37.442Z,78.50
2018-08-27T07:55:05.044Z,78.50
2018-08-27T07:57:32.398Z,78.60
2018-08-27T07:59:59.747Z,78.30
2018-08-27T08:02:27.100Z,78.30
2018-08-27T08:04:54.763Z,78.60
2018-08-27T08:07:22.315Z,78.80
2018-08-27T08:09:49.550Z,78.90
2018-08-27T08:12:17.079Z,79.30
2018-08-27T08:14:44.450Z,79.40
2018-08-27T08:17:11.768Z,79.60
2018-08-27T08:19:39.115Z,80.00
2018-08-27T08:22:06.459Z,80.20
2018-08-27T08:24:33.781Z,80.00
2018-08-27T08:27:01.264Z,80.20
2018-08-27T08:29:28.563Z,80.10
2018-08-27T08:31:55.879Z,80.40
2018-08-27T08:34:23.213Z,80.70
2018-08-27T08:36:50.544Z,79.90
2018-08-27T08:39:17.889Z,79.20
2018-08-27T08:41:45.392Z,79.00
2018-08-27T08:44:12.700Z,79.30
2018-08-27T08:46:40.033Z,79.90
2018-08-27T08:49:07.334Z,80.40
2018-08-27T08:51:34.648Z,80.70
2018-08-27T08:54:02.281Z,81.00
2018-08-27T08:56:29.589Z,79.70
2018-08-27T08:58:56.892Z,78.30
2018-08-27T09:01:24.239Z,77.80
2018-08-27T09:03:51.556Z,78.50
2018-08-27T09:06:19.059Z,76.90
2018-08-27T09:08:46.591Z,76.00
2018-08-27T09:11:13.929Z,75.60
2018-08-27T09:13:41.251Z,74.60
2018-08-27T09:16:08.659Z,72.90
2018-08-27T09:18:36.107Z,72.50
2018-08-27T09:21:03.599Z,72.00
2018-08-27T09:23:31.047Z,72.10
2018-08-27T09:25:58.597Z,70.40
2018-08-27T09:28:26.035Z,70.20
2018-08-27T09:30:53.371Z,70.10
2018-08-27T09:33:20.670Z,69.70
2018-08-27T09:35:48.013Z,68.60
2018-08-27T09:38:15.310Z,66.90
2018-08-27T09:40:42.644Z,66.90
2018-08-27T09:43:09.935Z,66.90
2018-08-27T09:45:37.625Z,67.30
2018-08-27T09:48:04.969Z,67.20
2018-08-27T09:50:32.314Z,66.20
2018-08-27T09:53:00.134Z,66.20
2018-08-27T09:55:27.417Z,66.30
2018-08-27T09:57:54.793Z,65.90
2018-08-27T10:00:28.098Z,64.50
2018-08-27T10:02:55.403Z,65.40
2018-08-27T10:05:22.765Z,64.60
2018-08-27T10:07:50.263Z,64.80
2018-08-27T10:10:17.634Z,61.90
2018-08-27T10:12:44.921Z,61.00
2018-08-27T10:15:12.241Z,60.40
2018-08-27T10:17:39.527Z,60.70
2018-08-27T10:20:07.448Z,59.80
2018-08-27T10:22:35.246Z,59.50
2018-08-27T10:25:02.552Z,59.80
2018-08-27T10:27:29.856Z,60.30
2018-08-27T10:29:57.269Z,59.90
2018-08-27T10:32:25.184Z,60.50
2018-08-27T10:34:52.503Z,59.90
2018-08-27T10:37:19.933Z,59.60
2018-08-27T10:39:47.114Z,59.80
2018-08-27T10:42:14.442Z,60.20
2018-08-27T10:44:41.740Z,59.30
2018-08-27T10:47:09.072Z,58.80
2018-08-27T10:49:36.377Z,58.50
2018-08-27T10:52:03.683Z,58.50
2018-08-27T10:54:31.690Z,57.50
2018-08-27T10:56:59.016Z,57.80
2018-08-27T10:59:26.312Z,57.30
2018-08-27T11:01:53.607Z,58.50
2018-08-27T11:04:20.931Z,57.20
2018-08-27T11:06:48.211Z,56.40
2018-08-27T11:09:15.556Z,54.40
2018-08-27T11:11:42.893Z,54.90
2018-08-27T11:14:10.310Z,54.50
2018-08-27T11:16:37.601Z,54.70
2018-08-27T11:19:04.910Z,54.10
2018-08-27T11:21:32.240Z,54.10
2018-08-27T11:24:04.151Z,53.00
2018-08-27T11:26:36.090Z,52.90
2018-08-27T11:29:03.411Z,52.50
2018-08-27T11:31:30.706Z,51.60
2018-08-27T11:33:58.059Z,52.40
2018-08-27T11:36:25.390Z,52.10
2018-08-27T11:38:52.734Z,52.60
2018-08-27T11:41:20.060Z,52.50
2018-08-27T11:43:47.536Z,52.50
2018-08-27T11:46:14.853Z,52.60
2018-08-27T11:48:42.176Z,53.30
2018-08-27T11:51:09.794Z,53.50
2018-08-27T11:53:37.012Z,53.50
2018-08-27T11:56:04.419Z,53.70
2018-08-27T11:58:31.857Z,53.70
2018-08-27T12:01:05.826Z,54.40
2018-08-27T12:03:33.096Z,54.00
2018-08-27T12:06:00.413Z,54.10
2018-08-27T12:08:27.947Z,53.90
2018-08-27T12:10:55.300Z,54.30
2018-08-27T12:13:22.601Z,54.50
2018-08-27T12:15:49.965Z,54.50
2018-08-27T12:18:17.251Z,54.80
2018-08-27T12:20:44.543Z,55.00
2018-08-27T12:23:11.875Z,55.40
2018-08-27T12:25:39.233Z,55.70
2018-08-27T12:28:06.549Z,56.00
2018-08-27T12:30:33.878Z,56.20
2018-08-27T12:33:01.219Z,55.90
2018-08-27T12:35:28.504Z,55.80
2018-08-27T12:37:55.878Z,55.60
2018-08-27T12:40:23.149Z,54.80
2018-08-27T12:42:50.463Z,55.80
2018-08-27T12:45:17.771Z,55.20
2018-08-27T12:47:45.120Z,54.80
2018-08-27T12:50:12.456Z,54.40
2018-08-27T12:52:39.768Z,54.30
2018-08-27T12:55:07.090Z,54.70
2018-08-27T12:57:41.145Z,54.20
2018-08-27T13:00:12.637Z,54.40
2018-08-27T13:02:39.976Z,55.10
2018-08-27T13:05:08.144Z,54.60
2018-08-27T13:07:35.576Z,54.30
2018-08-27T13:10:02.878Z,54.40
2018-08-27T13:12:30.655Z,53.00
2018-08-27T13:14:58.022Z,52.50
2018-08-27T13:17:25.321Z,52.50
2018-08-27T13:19:52.644Z,52.50
2018-08-27T13:22:19.946Z,52.70
2018-08-27T13:24:47.277Z,52.80
2018-08-27T13:27:14.571Z,52.50
2018-08-27T13:29:41.872Z,53.10
2018-08-27T13:32:09.172Z,53.20
2018-08-27T13:34:36.566Z,53.80
2018-08-27T13:37:03.936Z,53.80
2018-08-27T13:39:31.271Z,53.40
2018-08-27T13:41:58.703Z,52.80
2018-08-27T13:44:25.883Z,51.90
2018-08-27T13:46:53.195Z,52.10
2018-08-27T13:49:20.502Z,52.50
2018-08-27T13:51:49.066Z,52.70
2018-08-27T13:54:16.966Z,52.70
2018-08-27T13:56:44.283Z,51.50
2018-08-27T13:59:11.879Z,51.60
2018-08-27T14:01:39.171Z,51.30
2018-08-27T14:04:06.735Z,51.40
2018-08-27T14:06:34.264Z,51.10
2018-08-27T14:09:01.573Z,50.30
2018-08-27T14:11:29.064Z,51.30
2018-08-27T14:13:56.404Z,50.90
2018-08-27T14:16:23.872Z,50.80
2018-08-27T14:18:51.195Z,51.10
2018-08-27T14:21:18.501Z,50.60
2018-08-27T14:23:45.809Z,51.20
2018-08-27T14:26:13.112Z,51.50
2018-08-27T14:28:40.435Z,51.90
2018-08-27T14:31:08.002Z,52.50
2018-08-27T14:33:35.306Z,52.70
2018-08-27T14:36:02.644Z,53.00
2018-08-27T14:38:30.038Z,52.50
2018-08-27T14:40:57.348Z,52.10
2018-08-27T14:43:24.635Z,52.20
2018-08-27T14:45:52.024Z,51.40
2018-08-27T14:48:19.464Z,51.10
2018-08-27T14:50:46.939Z,50.80
2018-08-27T14:53:14.252Z,50.30
2018-08-27T14:55:41.562Z,50.90
2018-08-27T14:58:08.871Z,51.50
2018-08-27T15:00:36.167Z,50.80
2018-08-27T15:03:03.475Z,51.40
2018-08-27T15:05:30.776Z,50.80
2018-08-27T15:07:58.107Z,50.20
2018-08-27T15:10:25.415Z,50.40
2018-08-27T15:12:52.745Z,50.70
2018-08-27T15:15:20.268Z,50.80
2018-08-27T15:17:47.608Z,51.70
2018-08-27T15:20:14.915Z,52.40
2018-08-27T15:22:42.227Z,52.60
2018-08-27T15:25:09.500Z,52.40
2018-08-27T15:27:36.852Z,53.10
2018-08-27T15:30:04.871Z,53.50
2018-08-27T15:32:32.163Z,53.30
2018-08-27T15:34:59.475Z,53.50
2018-08-27T15:37:26.913Z,53.20
2018-08-27T15:39:54.323Z,53.10
2018-08-27T15:42:21.892Z,53.30
2018-08-27T15:44:49.216Z,53.40
2018-08-27T15:47:16.535Z,53.70
2018-08-27T15:49:43.880Z,54.00
2018-08-27T15:52:11.576Z,54.00
2018-08-27T15:54:38.907Z,53.80
2018-08-27T15:57:06.272Z,53.40
2018-08-27T15:59:33.535Z,53.40
2018-08-27T16:02:00.833Z,53.30
2018-08-27T16:04:28.151Z,53.50
2018-08-27T16:06:55.559Z,53.10
2018-08-27T16:09:22.840Z,53.10
2018-08-27T16:11:50.194Z,53.30
2018-08-27T16:14:17.531Z,53.60
2018-08-27T16:16:44.833Z,54.20
2018-08-27T16:19:12.195Z,53.40
2018-08-27T16:21:39.539Z,53.60
2018-08-27T16:24:06.829Z,53.40
2018-08-27T16:26:34.127Z,53.20
2018-08-27T16:29:01.452Z,53.20
2018-08-27T16:31:28.759Z,52.90
2018-08-27T16:33:56.123Z,52.70
2018-08-27T16:36:23.451Z,53.40
2018-08-27T16:38:50.907Z,53.10
2018-08-27T16:41:18.523Z,53.20
2018-08-27T16:43:45.819Z,53.30
2018-08-27T16:46:13.120Z,53.50
2018-08-27T16:48:40.440Z,53.40
2018-08-27T16:51:07.741Z,53.10
2018-08-27T16:53:35.055Z,53.30
2018-08-27T16:56:02.347Z,53.60
2018-08-27T16:58:29.732Z,53.80
2018-08-27T17:00:56.951Z,53.50
2018-08-27T17:03:24.272Z,53.40
2018-08-27T17:05:51.575Z,53.80
2018-08-27T17:08:19.096Z,54.00
2018-08-27T17:10:46.547Z,54.80
2018-08-27T17:13:13.829Z,54.60
2018-08-27T17:15:41.856Z,54.60
2018-08-27T17:18:09.208Z,54.70
2018-08-27T17:20:36.535Z,54.40
2018-08-27T17:23:03.933Z,54.10
2018-08-27T17:25:31.235Z,54.20
2018-08-27T17:27:58.531Z,54.10
2018-08-27T17:30:25.879Z,54.80
2018-08-27T17:32:53.481Z,54.20
2018-08-27T17:35:20.804Z,54.50
2018-08-27T17:37:48.135Z,54.40
2018-08-27T17:40:15.472Z,54.40
2018-08-27T17:42:42.829Z,54.60
2018-08-27T17:45:10.368Z,54.60
2018-08-27T17:47:37.546Z,54.60
2018-08-27T17:50:05.588Z,54.70
2018-08-27T17:52:32.946Z,54.70
2018-08-27T17:55:00.276Z,54.90
2018-08-27T17:57:27.575Z,54.90
2018-08-27T17:59:54.884Z,54.70
2018-08-27T18:02:22.236Z,55.00
2018-08-27T18:04:56.396Z,55.00
2018-08-27T18:07:23.715Z,55.20
2018-08-27T18:09:51.051Z,55.40
2018-08-27T18:12:18.454Z,55.30
2018-08-27T18:14:45.762Z,55.50
2018-08-27T18:17:13.319Z,55.50
2018-08-27T18:19:40.768Z,55.60
2018-08-27T18:22:08.004Z,55.60
2018-08-27T18:24:35.580Z,55.60
2018-08-27T18:27:02.955Z,55.60
2018-08-27T18:29:30.301Z,55.70
2018-08-27T18:31:57.631Z,55.90
2018-08-27T18:34:24.932Z,56.00
2018-08-27T18:36:52.459Z,56.20
2018-08-27T18:39:19.796Z,56.20
2018-08-27T18:41:47.140Z,56.50
2018-08-27T18:44:14.512Z,56.50
2018-08-27T18:46:41.983Z,56.70
2018-08-27T18:49:09.295Z,56.70
2018-08-27T18:51:36.653Z,56.90
2018-08-27T18:54:04.423Z,56.90
2018-08-27T18:56:31.847Z,56.90
2018-08-27T18:58:59.219Z,56.90
2018-08-27T19:01:32.298Z,57.00
2018-08-27T19:03:59.615Z,57.10
2018-08-27T19:06:26.974Z,57.20
2018-08-27T19:08:54.415Z,57.30
2018-08-27T19:11:21.828Z,57.40
2018-08-27T19:13:49.138Z,57.40
2018-08-27T19:16:16.509Z,57.50
2018-08-27T19:18:43.803Z,57.50
2018-08-27T19:21:11.282Z,57.60
2018-08-27T19:23:38.600Z,57.60
2018-08-27T19:26:05.978Z,57.80
2018-08-27T19:28:33.327Z,57.70
2018-08-27T19:31:00.655Z,57.80
2018-08-27T19:33:28.048Z,57.90
2018-08-27T19:35:55.534Z,57.90
2018-08-27T19:38:22.774Z,57.90
2018-08-27T19:40:50.176Z,57.80
2018-08-27T19:43:17.530Z,57.80
2018-08-27T19:45:44.884Z,57.80
2018-08-27T19:48:12.182Z,58.00
2018-08-27T19:50:39.741Z,58.00
2018-08-27T19:53:07.107Z,57.90
2018-08-27T19:55:34.436Z,57.90
2018-08-27T19:58:02.116Z,58.00
2018-08-27T20:00:29.445Z,58.00
2018-08-27T20:02:56.784Z,58.10
2018-08-27T20:05:24.161Z,58.10
2018-08-27T20:07:51.447Z,58.20
2018-08-27T20:10:18.787Z,58.20
2018-08-27T20:12:46.125Z,58.10
2018-08-27T20:15:13.461Z,58.10
2018-08-27T20:17:40.780Z,58.00
2018-08-27T20:20:08.146Z,57.90
2018-08-27T20:22:35.675Z,57.90
2018-08-27T20:25:03.027Z,57.70
2018-08-27T20:27:30.377Z,57.80
2018-08-27T20:29:57.717Z,57.90
2018-08-27T20:32:25.032Z,57.80
2018-08-27T20:34:52.396Z,57.80
2018-08-27T20:37:19.715Z,58.00
2018-08-27T20:39:47.150Z,57.90
2018-08-27T20:42:14.328Z,58.00
2018-08-27T20:44:41.660Z,58.20
2018-08-27T20:47:08.977Z,58.40
2018-08-27T20:49:36.316Z,58.50
2018-08-27T20:52:03.707Z,58.50
2018-08-27T20:54:31.024Z,58.70
2018-08-27T20:56:58.450Z,58.80
2018-08-27T20:59:25.739Z,58.90
2018-08-27T21:01:53.109Z,58.90
2018-08-27T21:04:20.581Z,58.90
2018-08-27T21:06:47.753Z,59.00
2018-08-27T21:09:15.100Z,59.00
2018-08-27T21:11:42.511Z,59.00
2018-08-27T21:14:51.161Z,59.00
2018-08-27T21:17:18.565Z,59.00
2018-08-27T21:19:45.964Z,58.90
2018-08-27T21:22:13.317Z,58.90
2018-08-27T21:24:40.664Z,58.90
2018-08-27T21:27:08.032Z,58.90
2018-08-27T21:29:35.380Z,58.90
2018-08-27T21:32:02.715Z,58.80
2018-08-27T21:34:30.024Z,58.90
2018-08-27T21:36:57.364Z,58.90
2018-08-27T21:39:31.525Z,59.00
2018-08-27T21:41:58.875Z,59.00
2018-08-27T21:44:26.231Z,59.00
2018-08-27T21:46:53.564Z,59.30
2018-08-27T21:49:20.942Z,59.20
2018-08-27T21:51:48.307Z,59.30
2018-08-27T21:54:15.603Z,59.30
2018-08-27T21:56:43.056Z,59.40
2018-08-27T21:59:10.354Z,59.40
2018-08-27T22:01:37.676Z,59.50
2018-08-27T22:04:11.807Z,60.20
2018-08-27T22:06:39.938Z,59.40
2018-08-27T22:09:07.263Z,59.30
2018-08-27T22:11:34.584Z,59.30
2018-08-27T22:14:02.121Z,59.30
2018-08-27T22:16:29.503Z,59.40
2018-08-27T22:18:56.819Z,59.30
2018-08-27T22:21:24.187Z,59.40
2018-08-27T22:23:51.752Z,59.40
2018-08-27T22:26:19.287Z,59.30
2018-08-27T22:28:46.580Z,59.40
2018-08-27T22:31:13.875Z,59.50
2018-08-27T22:33:41.177Z,59.40
2018-08-27T22:36:08.465Z,59.50
2018-08-27T22:38:35.755Z,59.60
2018-08-27T22:41:03.067Z,59.60
2018-08-27T22:43:30.350Z,59.70
2018-08-27T22:45:57.723Z,59.80
2018-08-27T22:48:25.028Z,59.80
2018-08-27T22:50:52.329Z,59.90
2018-08-27T22:53:19.890Z,60.00
2018-08-27T22:55:47.173Z,60.10
2018-08-27T22:58:14.599Z,60.20
2018-08-27T23:00:41.888Z,60.30
2018-08-27T23:03:14.889Z,60.30
2018-08-27T23:05:42.399Z,60.40
2018-08-27T23:08:09.669Z,60.40
2018-08-27T23:10:36.978Z,60.40
2018-08-27T23:13:04.312Z,60.50
2018-08-27T23:15:31.620Z,60.50
2018-08-27T23:17:58.919Z,60.70
2018-08-27T23:20:26.240Z,60.70
2018-08-27T23:22:53.536Z,60.80
2018-08-27T23:25:20.907Z,61.00
2018-08-27T23:27:48.203Z,60.80
2018-08-27T23:30:15.514Z,60.90
2018-08-27T23:32:42.800Z,61.10
2018-08-27T23:35:10.336Z,61.00
2018-08-27T23:37:37.612Z,61.10
2018-08-27T23:40:05.379Z,61.10
2018-08-27T23:42:32.915Z,61.10
2018-08-27T23:45:00.239Z,61.10
2018-08-27T23:47:27.527Z,61.20
2018-08-27T23:49:55.080Z,61.20
2018-08-27T23:52:22.379Z,61.10
2018-08-27T23:54:49.782Z,61.20
2018-08-27T23:57:17.344Z,61.30
2018-08-27T23:59:44.727Z,61.30
